Time;durP1;ratioP1;P1;durP2;ratioP2;P2;SDS_P1;SDS_P2;PMS_P1;PMS_P2;Temp;Humidity;BMP_temperature;BMP_pressure;BME280_temperature;BME280_humidity;BME280_pressure;Samples;Min_cycle;Max_cycle;Signal;HPM_P1;HPM_P2
2022/10/27 00:01:39;;;;;;;23.30;14.30;;;;;;;15.63;65.01;100715.41;7737583;32;40231;-84
2022/10/27 00:05:55;;;;;;;24.33;15.05;;;;;;;15.20;66.16;100717.81;7724304;32;40832;-84
2022/10/27 00:10:11;;;;;;;23.35;15.00;;;;;;;15.20;66.28;100721.37;7708883;32;37963;-85
2022/10/27 00:14:28;;;;;;;21.55;14.05;;;;;;;15.31;65.93;100724.87;7723643;32;37620;-84
2022/10/27 00:18:45;;;;;;;24.30;15.43;;;;;;;15.56;64.97;100725.91;7737177;32;39474;-85
2022/10/27 00:23:01;;;;;;;26.37;16.65;;;;;;;15.41;65.46;100732.28;7708730;32;40575;-85
2022/10/27 00:27:17;;;;;;;27.15;16.67;;;;;;;15.12;66.62;100741.16;7710086;32;38063;-84
2022/10/27 00:31:33;;;;;;;24.83;15.82;;;;;;;15.16;66.39;100742.25;7715083;32;37992;-85
2022/10/27 00:35:49;;;;;;;23.23;15.40;;;;;;;15.13;66.21;100740.06;7736806;32;40041;-84
2022/10/27 00:40:06;;;;;;;25.42;15.25;;;;;;;15.17;66.33;100743.88;7738554;32;39894;-84
2022/10/27 00:44:34;;;;;;;25.23;16.00;;;;;;;14.96;67.27;100745.87;7716652;32;38211;-84
2022/10/27 00:48:55;;;;;;;23.62;15.70;;;;;;;15.27;66.24;100734.81;7712799;32;37802;-85
2022/10/27 00:53:11;;;;;;;25.05;15.90;;;;;;;15.14;66.68;100743.62;7727934;32;39408;-84
2022/10/27 00:57:30;;;;;;;25.77;15.40;;;;;;;14.86;67.64;100745.87;7725732;32;40814;-84
2022/10/27 01:01:49;;;;;;;24.52;15.88;;;;;;;15.15;66.68;100748.03;7719909;32;37929;-84
2022/10/27 01:06:05;;;;;;;26.70;15.55;;;;;;;15.00;67.16;100760.72;7711844;32;37295;-83
2022/10/27 01:10:22;;;;;;;23.38;15.20;;;;;;;15.13;66.78;100756.53;7734257;32;39362;-84
2022/10/27 01:14:39;;;;;;;22.55;14.82;;;;;;;15.17;66.45;100762.31;7727636;32;40516;-84
2022/10/27 01:19:04;;;;;;;25.10;16.12;;;;;;;15.12;66.71;100767.81;7737877;32;37673;-83
2022/10/27 01:23:23;;;;;;;24.50;15.00;;;;;;;15.19;66.47;100769.19;7723668;32;38029;-85
2022/10/27 01:27:58;;;;;;;27.50;15.43;;;;;;;15.49;65.40;100763.88;7711391;32;39332;-85
2022/10/27 01:32:57;;;;;;;23.98;15.05;;;;;;;15.46;65.48;100769.91;7711035;32;39971;-84
2022/10/27 01:37:26;;;;;;;25.60;15.73;;;;;;;15.62;64.96;100773.41;7668168;32;38686;-84
2022/10/27 01:41:50;;;;;;;23.48;14.25;;;;;;;15.49;65.04;100775.66;7727009;32;37075;-85
2022/10/27 01:46:08;;;;;;;24.50;15.48;;;;;;;15.29;65.76;100776.53;7739208;32;39533;-84
2022/10/27 01:50:33;;;;;;;23.42;14.25;;;;;;;15.47;64.95;100783.38;7709956;32;40039;-84
2022/10/27 01:55:18;;;;;;;22.67;13.95;;;;;;;15.44;65.08;100785.87;7711888;32;39319;-84
2022/10/27 01:59:46;;;;;;;21.02;13.80;;;;;;;14.96;66.46;100781.56;7731240;32;37047;-84
2022/10/27 02:04:31;;;;;;;21.67;12.27;;;;;;;15.24;65.50;100787.53;7739028;32;39815;-84
2022/10/27 02:09:15;;;;;;;22.00;13.82;;;;;;;14.87;66.88;100785.13;7712785;32;39743;-84
2022/10/27 02:13:39;;;;;;;20.88;13.18;;;;;;;15.40;65.32;100789.16;7689712;32;38715;-84
2022/10/27 02:18:01;;;;;;;25.50;16.62;;;;;;;15.11;65.91;100788.97;7718817;32;37805;-84
2022/10/27 02:22:18;;;;;;;24.80;14.68;;;;;;;14.82;67.48;100795.03;7738702;32;40178;-84
2022/10/27 02:26:48;;;;;;;26.30;14.85;;;;;;;15.24;65.79;100790.28;7724388;32;40003;-84
2022/10/27 02:31:05;;;;;;;23.35;14.90;;;;;;;15.49;65.08;100791.34;7725322;32;38046;-85
2022/10/27 02:35:21;;;;;;;27.27;15.27;;;;;;;15.09;66.07;100795.81;7721723;32;37314;-85
2022/10/27 02:39:37;;;;;;;21.12;13.85;;;;;;;15.29;65.61;100793.03;7721900;32;39370;-85
2022/10/27 02:43:54;;;;;;;22.65;14.70;;;;;;;15.45;65.20;100788.31;7735729;32;39915;-84
2022/10/27 02:48:10;;;;;;;22.60;13.40;;;;;;;15.01;66.71;100798.03;7737554;32;38849;-84
2022/10/27 02:52:26;;;;;;;25.45;15.73;;;;;;;15.23;66.09;100790.56;7735776;32;38041;-84
2022/10/27 02:56:42;;;;;;;24.17;14.20;;;;;;;15.00;66.60;100796.41;7738177;32;39073;-82
2022/10/27 03:00:59;;;;;;;23.98;15.20;;;;;;;15.08;66.40;100802.44;7725141;32;40561;-83
2022/10/27 03:05:15;;;;;;;22.33;14.27;;;;;;;15.13;66.39;100795.00;7711298;32;38209;-84
2022/10/27 03:09:31;;;;;;;23.35;14.32;;;;;;;15.27;65.83;100795.25;7719754;32;37377;-85
2022/10/27 03:13:48;;;;;;;25.20;15.23;;;;;;;15.35;65.67;100791.94;7733269;32;40174;-85
2022/10/27 03:18:04;;;;;;;27.87;14.85;;;;;;;15.53;64.73;100795.97;7737116;32;40842;-84
2022/10/27 03:22:20;;;;;;;24.12;15.13;;;;;;;15.50;64.82;100792.97;7738179;32;39343;-84
2022/10/27 03:26:36;;;;;;;26.35;15.23;;;;;;;15.41;65.21;100806.47;7738272;32;36883;-85
2022/10/27 03:30:53;;;;;;;25.35;14.95;;;;;;;15.16;65.99;100805.44;7735009;32;39934;-85
2022/10/27 03:35:09;;;;;;;30.58;19.40;;;;;;;15.45;65.02;100801.22;7734730;32;40882;-85
2022/10/27 03:39:25;;;;;;;26.40;16.02;;;;;;;15.28;65.61;100796.91;7734458;32;39383;-84
2022/10/27 03:43:41;;;;;;;25.73;16.35;;;;;;;15.12;66.44;100803.50;7735776;32;37171;-84
2022/10/27 03:48:06;;;;;;;23.98;15.07;;;;;;;15.20;65.98;100805.69;7737721;32;40136;-84
2022/10/27 03:52:23;;;;;;;27.50;15.00;;;;;;;15.31;65.74;100815.53;7737963;32;40086;-84
2022/10/27 03:56:42;;;;;;;23.25;14.68;;;;;;;15.10;66.44;100816.69;7737700;32;38234;-84
2022/10/27 04:01:03;;;;;;;31.23;16.52;;;;;;;15.21;66.31;100812.81;7737698;32;35485;-84
2022/10/27 04:05:19;;;;;;;23.80;14.55;;;;;;;14.96;67.02;100822.75;7724092;32;38780;-83
2022/10/27 04:09:36;;;;;;;26.15;13.77;;;;;;;15.20;66.22;100819.44;7737362;32;39994;-84
2022/10/27 04:13:52;;;;;;;25.48;13.55;;;;;;;15.34;65.43;100828.72;7736614;32;38909;-84
2022/10/27 04:18:09;;;;;;;21.77;13.55;;;;;;;15.37;65.35;100828.19;7723555;32;37675;-84
2022/10/27 04:22:25;;;;;;;25.30;13.48;;;;;;;15.34;65.44;100823.22;7723342;32;40082;-84
2022/10/27 04:26:41;;;;;;;21.92;13.25;;;;;;;15.38;65.29;100824.34;7737093;32;40782;-85
2022/10/27 04:30:58;;;;;;;22.50;13.02;;;;;;;15.27;65.41;100822.72;7736790;32;38147;-84
2022/10/27 04:35:14;;;;;;;23.67;13.95;;;;;;;15.24;65.62;100827.94;7737040;32;38206;-84
2022/10/27 04:39:30;;;;;;;25.27;14.05;;;;;;;14.99;66.47;100832.38;7736957;32;39813;-84
2022/10/27 04:43:50;;;;;;;27.30;14.30;;;;;;;15.39;65.05;100836.16;7736781;32;39641;-85
2022/10/27 04:48:11;;;;;;;25.75;14.15;;;;;;;15.03;66.48;100844.44;7723307;32;38719;-83
2022/10/27 04:52:27;;;;;;;26.15;15.10;;;;;;;14.81;67.19;100850.22;7736306;32;37912;-83
2022/10/27 04:56:44;;;;;;;25.67;15.50;;;;;;;14.60;68.36;100846.63;7736453;32;39271;-84
2022/10/27 05:01:06;;;;;;;28.08;15.75;;;;;;;14.52;68.76;100850.72;7736291;32;39920;-83
2022/10/27 05:05:24;;;;;;;26.83;16.97;;;;;;;14.93;67.24;100856.25;7736198;32;37771;-84
2022/10/27 05:09:40;;;;;;;29.95;17.90;;;;;;;15.17;66.50;100851.00;7735994;32;37188;-83
2022/10/27 05:13:56;;;;;;;29.85;17.50;;;;;;;15.04;67.14;100862.56;7735877;32;40105;-85
2022/10/27 05:18:12;;;;;;;28.25;15.80;;;;;;;15.37;65.91;100866.66;7735899;32;41200;-85
2022/10/27 05:22:28;;;;;;;30.80;15.63;;;;;;;15.40;65.77;100857.84;7735823;32;37583;-83
2022/10/27 05:26:45;;;;;;;33.22;18.02;;;;;;;15.63;67.28;100857.53;7738566;32;37019;-83
2022/10/27 05:31:02;;;;;;;27.00;14.90;;;;;;;15.44;66.28;100874.59;7739443;32;39314;-74
2022/10/27 05:35:18;;;;;;;26.62;15.60;;;;;;;15.52;66.45;100862.22;7739398;32;40797;-72
2022/10/27 05:39:34;;;;;;;32.22;17.58;;;;;;;15.58;66.05;100872.09;7739373;32;38695;-87
2022/10/27 05:43:51;;;;;;;32.80;17.37;;;;;;;15.55;65.52;100867.16;7725495;32;37645;-87
2022/10/27 05:48:09;;;;;;;33.70;16.92;;;;;;;15.44;65.69;100876.53;7739826;32;39106;-81
2022/10/27 05:52:25;;;;;;;31.83;17.73;;;;;;;15.49;65.56;100873.78;7712889;32;39315;-86
2022/10/27 05:56:41;;;;;;;30.70;16.45;;;;;;;15.53;65.46;100874.84;7739091;32;38161;-85
2022/10/27 06:00:59;;;;;;;33.08;17.90;;;;;;;15.16;66.69;100889.72;7739166;32;38223;-86
2022/10/27 06:05:15;;;;;;;32.42;17.45;;;;;;;14.91;67.79;100891.41;7725322;32;40151;-86
2022/10/27 06:09:31;;;;;;;37.72;19.23;;;;;;;15.21;67.11;100901.56;7739042;32;39871;-86
2022/10/27 06:13:52;;;;;;;33.90;17.67;;;;;;;14.50;69.97;100913.25;7738936;32;38393;-86
2022/10/27 06:18:08;;;;;;;32.67;17.73;;;;;;;15.00;68.07;100922.72;7739036;32;38093;-86
2022/10/27 06:22:24;;;;;;;34.42;17.73;;;;;;;14.98;68.03;100922.16;7738931;32;40161;-86
2022/10/27 06:26:40;;;;;;;32.45;18.05;;;;;;;15.12;67.67;100925.16;7738792;32;40012;-85
2022/10/27 06:30:57;;;;;;;37.03;17.58;;;;;;;14.77;68.99;100928.72;7738654;32;38717;-83
2022/10/27 06:35:13;;;;;;;32.03;16.67;;;;;;;15.03;68.17;100938.63;7738748;32;37807;-85
2022/10/27 06:39:29;;;;;;;32.30;17.40;;;;;;;15.10;67.95;100943.03;7738202;32;39642;-85
2022/10/27 06:43:45;;;;;;;34.25;16.90;;;;;;;14.84;69.02;100940.25;7739087;32;39881;-85
2022/10/27 06:48:02;;;;;;;30.17;15.77;;;;;;;15.32;67.10;100940.84;7738562;32;38947;-86
2022/10/27 06:52:18;;;;;;;35.80;17.55;;;;;;;15.13;67.93;100948.00;7738313;32;37256;-85
2022/10/27 06:56:34;;;;;;;33.00;18.55;;;;;;;15.24;67.58;100946.88;7738656;32;40151;-85
2022/10/27 07:00:50;;;;;;;32.95;16.98;;;;;;;15.03;68.21;100963.34;7724696;32;39946;-85
2022/10/27 07:05:08;;;;;;;34.00;16.98;;;;;;;15.28;67.60;100956.22;7738365;32;37806;-85
2022/10/27 07:09:24;;;;;;;33.28;17.33;;;;;;;14.93;68.95;100976.25;7738322;32;37263;-86
2022/10/27 07:13:40;;;;;;;34.97;17.23;;;;;;;15.21;68.10;100974.88;7738364;32;40314;-86
2022/10/27 07:17:58;;;;;;;39.08;18.40;;;;;;;15.32;67.81;100979.28;7735510;32;40044;-86
2022/10/27 07:22:15;;;;;;;35.90;18.55;;;;;;;15.15;68.39;100981.50;7735974;32;37962;-86
2022/10/27 07:26:31;;;;;;;33.38;18.20;;;;;;;14.88;69.46;100988.03;7737058;32;38133;-86
2022/10/27 07:30:47;;;;;;;37.63;17.83;;;;;;;14.76;70.11;100987.44;7734910;32;39315;-86
2022/10/27 07:35:04;;;;;;;33.33;16.67;;;;;;;14.78;70.36;100997.09;7734728;32;39534;-86
2022/10/27 07:39:20;;;;;;;34.38;17.35;;;;;;;14.86;69.60;100998.47;7734888;32;38831;-86
2022/10/27 07:43:38;;;;;;;38.15;18.42;;;;;;;14.60;70.74;101005.81;7736522;32;37747;-86
2022/10/27 07:47:56;;;;;;;35.00;18.20;;;;;;;14.51;70.90;101019.19;7736706;32;39451;-86
2022/10/27 07:52:12;;;;;;;30.45;15.88;;;;;;;14.82;70.50;101024.81;7723780;32;39945;-86
2022/10/27 07:56:29;;;;;;;25.45;14.23;;;;;;;15.24;69.17;101012.00;7737638;32;38772;-86
2022/10/27 08:00:47;;;;;;;26.50;14.57;;;;;;;15.21;69.03;101021.59;7737749;32;37299;-86
2022/10/27 08:05:03;;;;;;;25.17;13.85;;;;;;;15.10;69.22;101025.44;7737582;32;39404;-86
2022/10/27 08:09:20;;;;;;;27.58;14.23;;;;;;;15.00;68.89;101031.72;7737963;32;40026;-86
2022/10/27 08:13:36;;;;;;;28.42;15.18;;;;;;;14.57;70.05;101039.22;7737554;32;37896;-86
2022/10/27 08:17:58;;;;;;;26.20;14.63;;;;;;;15.05;69.21;101039.97;7737402;32;37296;-86
2022/10/27 08:22:14;;;;;;;27.27;12.77;;;;;;;14.83;69.72;101030.03;7737414;32;40091;-86
2022/10/27 08:26:31;;;;;;;28.90;14.73;;;;;;;15.24;68.74;101036.72;7737224;32;39683;-85
2022/10/27 08:30:49;;;;;;;26.77;14.23;;;;;;;15.36;67.90;101049.06;7723664;32;38790;-86
2022/10/27 08:35:08;;;;;;;25.20;14.48;;;;;;;15.40;68.23;101047.44;7737034;32;37252;-86
2022/10/27 08:39:24;;;;;;;28.17;14.48;;;;;;;15.03;69.09;101051.22;7737013;32;38970;-85
2022/10/27 08:43:44;;;;;;;33.08;15.20;;;;;;;15.15;68.67;101044.66;7736888;32;39636;-86
2022/10/27 08:48:00;;;;;;;23.20;12.63;;;;;;;15.25;68.55;101046.63;7736729;32;38120;-85
2022/10/27 08:52:28;;;;;;;34.30;13.88;;;;;;;14.32;71.43;101053.66;7736337;32;37962;-85
2022/10/27 08:56:45;;;;;;;26.27;14.38;;;;;;;14.51;70.82;101054.84;7736707;32;40085;-86
2022/10/27 09:01:15;;;;;;;30.67;13.48;;;;;;;15.00;69.44;101049.03;7724681;32;40831;-86
2022/10/27 09:05:50;;;;;;;27.95;13.52;;;;;;;15.26;68.54;101049.06;7727785;32;38891;-86
2022/10/27 09:10:28;;;;;;;25.40;13.43;;;;;;;15.12;68.92;101050.69;7739770;32;36982;-85
2022/10/27 09:14:49;;;;;;;27.40;13.93;;;;;;;14.86;70.37;101053.38;7727774;32;40109;-86
2022/10/27 09:19:11;;;;;;;26.33;14.27;;;;;;;14.97;70.01;101059.72;7739878;32;40111;-85
2022/10/27 09:23:28;;;;;;;26.87;14.15;;;;;;;14.21;73.08;101059.09;7739687;32;38802;-85
2022/10/27 09:27:48;;;;;;;25.37;13.90;;;;;;;14.81;70.80;101054.19;7734718;32;158489;-86
2022/10/27 09:32:19;;;;;;;28.62;14.45;;;;;;;15.18;69.55;101055.13;7726166;32;40210;-86
2022/10/27 09:36:35;;;;;;;24.60;13.25;;;;;;;15.33;69.09;101057.87;7739695;32;40788;-86
2022/10/27 09:40:52;;;;;;;26.42;13.40;;;;;;;15.51;68.67;101050.22;7739384;32;37043;-86
2022/10/27 09:45:18;;;;;;;21.80;11.73;;;;;;;15.27;68.85;101056.22;7725816;32;37753;-86
2022/10/27 09:49:38;;;;;;;23.23;12.35;;;;;;;15.66;67.55;101054.84;7739352;32;39452;-87
2022/10/27 09:53:55;;;;;;;21.83;11.70;;;;;;;14.67;70.50;101054.97;7725660;32;39663;-87
2022/10/27 09:58:11;;;;;;;24.33;11.50;;;;;;;15.24;68.93;101054.00;7739240;32;38045;-87
2022/10/27 10:02:32;;;;;;;24.52;12.88;;;;;;;15.61;67.84;101055.72;7739239;32;37990;-86
2022/10/27 10:06:59;;;;;;;24.20;12.80;;;;;;;15.16;69.50;101060.03;7739310;32;38914;-86
2022/10/27 10:11:21;;;;;;;22.87;12.70;;;;;;;15.13;69.72;101063.34;7724954;32;40698;-87
2022/10/27 10:15:42;;;;;;;22.10;12.50;;;;;;;14.91;69.22;101075.34;7738973;32;38392;-87
2022/10/27 10:19:59;;;;;;;21.98;12.37;;;;;;;14.57;70.97;101072.16;7725865;32;37096;-86
2022/10/27 10:24:24;;;;;;;24.98;12.85;;;;;;;14.42;71.73;101075.66;7739175;32;39966;-87
2022/10/27 10:28:44;;;;;;;20.37;12.25;;;;;;;14.56;70.98;101071.34;7739196;32;40709;-86
2022/10/27 10:33:03;;;;;;;23.50;12.40;;;;;;;14.58;71.48;101073.81;7725126;32;38069;-87
2022/10/27 10:37:41;;;;;;;21.70;12.13;;;;;;;14.99;70.42;101074.84;7738863;32;37239;-86
2022/10/27 10:42:11;;;;;;;23.15;11.88;;;;;;;15.65;67.56;101066.97;7725434;32;40117;-87
2022/10/27 10:46:28;;;;;;;24.92;12.13;;;;;;;14.77;70.26;101074.22;7738875;32;40977;-87
2022/10/27 10:50:51;;;;;;;23.15;12.60;;;;;;;15.20;69.19;101069.41;7738274;32;38751;-87
2022/10/27 10:55:19;;;;;;;23.67;11.90;;;;;;;15.85;66.45;101060.66;7725296;32;37104;-86
2022/10/27 10:59:35;;;;;;;18.40;10.43;;;;;;;15.67;67.15;101065.59;7726221;32;39348;-87
2022/10/27 11:03:54;;;;;;;19.08;10.38;;;;;;;16.10;65.51;101062.56;7738487;32;39971;-87
2022/10/27 11:08:26;;;;;;;17.90;10.30;;;;;;;16.38;64.78;101061.09;7724895;32;38619;-87
2022/10/27 11:12:49;;;;;;;20.52;11.02;;;;;;;16.83;62.97;101051.03;7712840;32;36874;-87
2022/10/27 11:17:06;;;;;;;16.42;8.80;;;;;;;16.53;63.50;101057.50;7738759;32;40147;-86
2022/10/27 11:21:28;;;;;;;20.33;9.32;;;;;;;17.16;61.95;101053.34;7724496;32;40998;-86
2022/10/27 11:25:44;;;;;;;18.95;10.27;;;;;;;16.92;62.12;101054.06;7724356;32;38094;-87
2022/10/27 11:30:17;;;;;;;17.98;9.25;;;;;;;17.19;61.42;101050.84;7738365;32;36847;-87
2022/10/27 11:34:45;;;;;;;13.90;8.03;;;;;;;17.29;61.10;101060.16;7725987;32;40094;-86
2022/10/27 11:39:12;;;;;;;14.80;9.20;;;;;;;16.87;61.60;101043.87;7738201;32;40725;-86
2022/10/27 11:43:29;;;;;;;15.77;8.32;;;;;;;16.73;62.45;101048.34;7725023;32;37983;-86
2022/10/27 11:47:57;;;;;;;17.60;9.80;;;;;;;17.27;60.48;101036.47;7724300;32;37460;-85
2022/10/27 11:52:34;;;;;;;18.05;9.13;;;;;;;17.10;60.84;101035.22;7724786;32;40065;-86
2022/10/27 11:57:12;;;;;;;16.12;9.23;;;;;;;16.85;61.25;101026.81;7713463;32;39979;-86
2022/10/27 12:01:52;;;;;;;18.33;9.68;;;;;;;15.90;65.27;101027.66;7737932;32;37893;-86
2022/10/27 12:06:18;;;;;;;17.62;9.30;;;;;;;15.92;65.47;101026.28;7737837;32;37875;-86
2022/10/27 12:10:52;;;;;;;20.37;9.85;;;;;;;15.93;65.01;101027.91;7737668;32;39912;-86
2022/10/27 12:15:17;;;;;;;19.87;9.68;;;;;;;15.50;66.50;101034.81;7737867;32;39884;-86
2022/10/27 12:19:44;;;;;;;17.62;9.07;;;;;;;16.13;64.23;101029.00;7737664;32;38159;-86
2022/10/27 12:24:16;;;;;;;15.23;8.57;;;;;;;16.39;63.61;101018.75;7724029;32;37688;-84
2022/10/27 12:28:33;;;;;;;15.85;8.32;;;;;;;16.31;63.10;101017.38;7737219;32;39340;-85
2022/10/27 12:32:58;;;;;;;18.48;9.32;;;;;;;16.51;62.09;101021.16;7723842;32;40977;-86
2022/10/27 12:37:22;;;;;;;16.77;9.35;;;;;;;16.19;63.58;101024.31;7736327;32;38033;-86
2022/10/27 12:42:08;;;;;;;15.35;7.93;;;;;;;16.66;62.59;101015.59;7724052;32;36861;-85
2022/10/27 12:46:46;;;;;;;15.13;8.77;;;;;;;16.01;63.71;101025.72;7720308;32;39456;-86
2022/10/27 12:51:15;;;;;;;16.73;9.10;;;;;;;16.39;62.73;101013.22;7736496;32;39980;-86
2022/10/27 12:55:43;;;;;;;16.45;8.93;;;;;;;16.24;63.25;101007.78;7723283;32;37748;-86
2022/10/27 13:00:34;;;;;;;15.38;8.73;;;;;;;16.29;62.37;101011.34;7736680;32;37918;-86
2022/10/27 13:05:28;;;;;;;22.40;9.80;;;;;;;16.85;61.16;101010.28;7729589;32;38907;-86
2022/10/27 13:10:15;;;;;;;18.83;9.48;;;;;;;15.79;64.34;101021.34;7736255;32;39969;-86
2022/10/27 13:14:59;;;;;;;20.10;9.70;;;;;;;16.19;63.69;101025.12;7736066;32;37672;-86
2022/10/27 13:19:47;;;;;;;17.33;9.43;;;;;;;15.35;65.88;101027.37;7736157;32;37322;-86
2022/10/27 13:24:54;;;;;;;17.73;9.75;;;;;;;16.43;63.03;101019.81;7736034;32;40163;-86
2022/10/27 13:29:35;;;;;;;16.27;8.88;;;;;;;16.30;62.87;101014.94;7722215;32;39899;-86
2022/10/27 13:34:10;;;;;;;15.52;8.80;;;;;;;16.45;62.48;101009.38;7722544;32;37828;-86
2022/10/27 13:38:26;;;;;;;16.00;8.77;;;;;;;16.88;61.58;101020.75;7735580;32;37863;-87
2022/10/27 13:42:43;;;;;;;19.83;9.52;;;;;;;16.70;61.44;101013.09;7735565;32;39038;-87
2022/10/27 13:47:02;;;;;;;15.63;8.88;;;;;;;16.28;62.66;101017.09;7736624;32;40229;-86
2022/10/27 13:52:09;;;;;;;15.90;9.15;;;;;;;16.70;62.11;101021.34;7739099;32;38599;-87
2022/10/27 13:56:38;;;;;;;18.20;9.15;;;;;;;16.69;61.82;101022.44;7725911;32;37843;-87
2022/10/27 14:01:19;;;;;;;18.65;10.13;;;;;;;16.62;62.15;101019.19;7739336;32;39308;-86
2022/10/27 14:05:44;;;;;;;14.90;8.85;;;;;;;16.43;62.51;101011.56;7739127;32;39936;-85
2022/10/27 14:10:11;;;;;;;17.85;9.98;;;;;;;16.09;63.44;101017.75;7739128;32;38642;-86
2022/10/27 14:14:31;;;;;;;18.03;9.40;;;;;;;16.38;62.56;101016.25;7726136;32;37246;-86
2022/10/27 14:19:17;;;;;;;15.02;8.90;;;;;;;16.71;61.81;101014.72;7739255;32;39268;-86
2022/10/27 14:23:33;;;;;;;16.42;9.50;;;;;;;16.55;62.36;101021.44;7738711;32;39820;-86
2022/10/27 14:28:03;;;;;;;18.25;9.52;;;;;;;15.68;65.48;101019.69;7723096;32;38676;-89
2022/10/27 14:32:25;;;;;;;15.40;9.57;;;;;;;15.92;64.61;101026.28;7732558;32;37867;-84
2022/10/27 14:36:41;;;;;;;14.15;8.27;;;;;;;15.55;65.73;101018.31;7765294;32;39121;-84
2022/10/27 14:40:58;;;;;;;17.83;8.75;;;;;;;16.14;64.21;101023.22;7751222;32;40006;-85
2022/10/27 14:45:17;;;;;;;18.55;9.80;;;;;;;15.86;65.07;101029.31;7763836;32;38004;-84
2022/10/27 14:49:42;;;;;;;15.20;9.20;;;;;;;15.52;66.28;101032.59;7764615;32;38354;-85
2022/10/27 14:53:58;;;;;;;21.27;11.20;;;;;;;15.88;65.38;101035.38;7765272;32;40342;-86
2022/10/27 14:58:21;;;;;;;16.42;10.15;;;;;;;15.64;65.83;101030.37;7764679;32;39657;-87
2022/10/27 15:02:38;;;;;;;15.73;8.87;;;;;;;15.84;64.98;101028.78;7751334;32;37935;-86
2022/10/27 15:07:01;;;;;;;19.12;9.85;;;;;;;16.11;64.42;101023.78;7765238;32;37808;-84
2022/10/27 15:11:25;;;;;;;;;;;;;;;16.01;64.55;101029.31;7752022;32;39288;-85
2022/10/27 15:15:43;;;;;;;16.27;8.88;;;;;;;16.32;63.30;101021.78;7766055;32;40159;-83
2022/10/27 15:20:01;;;;;;;21.62;10.23;;;;;;;16.11;64.15;101033.97;7764665;32;37593;-84
2022/10/27 15:24:23;;;;;;;15.55;8.77;;;;;;;15.80;64.97;101035.91;7751156;32;37454;-85
2022/10/27 15:28:39;;;;;;;15.68;8.15;;;;;;;15.76;65.21;101025.50;7751295;32;40142;-87
2022/10/27 15:32:56;;;;;;;20.10;9.63;;;;;;;16.14;63.99;101028.72;7750514;32;39924;-85
2022/10/27 15:37:26;;;;;;;15.88;9.73;;;;;;;16.10;64.02;101024.88;7750867;32;38756;-86
2022/10/27 15:41:50;;;;;;;13.75;7.72;;;;;;;16.45;62.83;101023.13;7750869;32;38007;-87
2022/10/27 15:46:27;;;;;;;13.52;8.75;;;;;;;16.07;64.12;101030.09;7751144;32;39312;-86
2022/10/27 15:50:55;;;;;;;14.25;8.48;;;;;;;16.19;63.66;101029.81;7764094;32;40581;-86
2022/10/27 15:55:22;;;;;;;13.73;7.45;;;;;;;16.34;63.04;101021.50;7764453;32;38115;-85
2022/10/27 15:59:58;;;;;;;14.52;8.60;;;;;;;16.18;63.65;101033.66;7764337;32;37459;-85
2022/10/27 16:04:22;;;;;;;14.30;7.75;;;;;;;16.36;62.92;101029.47;7763878;32;39551;-86
2022/10/27 16:08:39;;;;;;;15.68;8.98;;;;;;;16.24;63.45;101038.84;7763546;32;39103;-86
2022/10/27 16:12:55;;;;;;;14.82;8.00;;;;;;;16.29;63.19;101033.34;7749642;32;37759;-85
2022/10/27 16:17:22;;;;;;;13.75;8.32;;;;;;;16.44;62.69;101031.66;7741344;32;37370;-86
2022/10/27 16:21:39;;;;;;;12.73;7.20;;;;;;;16.34;62.86;101032.50;7710034;32;39388;-88
2022/10/27 16:25:55;;;;;;;13.65;7.55;;;;;;;16.16;63.79;101042.22;7722534;32;40596;-74
2022/10/27 16:30:16;;;;;;;13.75;7.93;;;;;;;16.39;63.22;101035.25;7734226;32;38065;-73
2022/10/27 16:34:32;;;;;;;13.35;7.32;;;;;;;16.48;62.58;101030.81;7709450;32;37302;-73
2022/10/27 16:38:49;;;;;;;13.45;7.80;;;;;;;16.26;63.51;101036.66;7710909;32;39881;-73
2022/10/27 16:43:05;;;;;;;14.38;8.38;;;;;;;16.17;64.07;101045.78;7709001;32;39901;-73
2022/10/27 16:47:22;;;;;;;14.93;8.77;;;;;;;16.40;63.12;101039.66;7709887;32;37808;-74
2022/10/27 16:51:39;;;;;;;19.30;9.52;;;;;;;16.59;62.15;101044.53;7708954;32;37226;-73
2022/10/27 16:56:03;;;;;;;18.05;9.73;;;;;;;16.28;62.73;101050.13;7708922;32;39292;-73
2022/10/27 17:00:20;;;;;;;17.25;8.77;;;;;;;16.56;61.58;101045.94;7709308;32;40817;-72
2022/10/27 17:04:36;;;;;;;14.00;8.25;;;;;;;16.21;63.23;101050.44;7708726;32;38015;-73
2022/10/27 17:08:52;;;;;;;14.70;8.55;;;;;;;16.25;63.21;101056.22;7709801;32;37885;-73
2022/10/27 17:13:08;;;;;;;15.43;9.02;;;;;;;15.95;64.14;101061.50;7718464;32;40117;-73
2022/10/27 17:17:24;;;;;;;15.50;8.82;;;;;;;16.23;63.32;101059.25;7712556;32;40853;-72
2022/10/27 17:21:40;;;;;;;16.23;8.68;;;;;;;16.40;62.67;101067.19;7723612;32;38667;-71
2022/10/27 17:26:05;;;;;;;14.85;8.07;;;;;;;16.13;63.54;101065.56;7725041;32;37285;-73
2022/10/27 17:30:21;;;;;;;13.80;8.02;;;;;;;16.24;62.95;101069.12;7729559;32;38658;-72
2022/10/27 17:34:38;;;;;;;13.93;8.35;;;;;;;16.09;63.38;101070.00;7714969;32;40058;-72
2022/10/27 17:38:54;;;;;;;15.20;9.05;;;;;;;15.92;63.86;101074.97;7738724;32;38752;-72
2022/10/27 17:43:10;;;;;;;14.77;8.77;;;;;;;16.33;62.32;101077.63;7728584;32;38581;-72
2022/10/27 17:47:29;;;;;;;17.98;9.00;;;;;;;15.92;63.95;101086.78;7738035;32;39358;-71
2022/10/27 17:51:45;;;;;;;13.62;7.95;;;;;;;16.15;62.93;101088.13;7714240;32;41285;-73
2022/10/27 17:56:05;;;;;;;14.75;8.77;;;;;;;16.40;62.31;101075.44;7712122;32;38238;-73
2022/10/27 18:00:21;;;;;;;16.98;8.93;;;;;;;15.94;63.62;101084.59;7723496;32;36966;-72
2022/10/27 18:04:37;;;;;;;16.75;8.55;;;;;;;15.99;63.72;101085.66;7716410;32;40059;-73
2022/10/27 18:08:58;;;;;;;15.48;9.38;;;;;;;16.17;63.01;101081.53;7712262;32;39865;-73
2022/10/27 18:13:14;;;;;;;16.83;9.88;;;;;;;15.85;64.35;101085.41;7713393;32;38141;-73
2022/10/27 18:17:31;;;;;;;18.92;9.98;;;;;;;15.97;63.73;101083.22;7745644;32;37760;-73
2022/10/27 18:21:47;;;;;;;16.85;10.25;;;;;;;15.94;64.21;101092.84;7742636;32;40114;-73
2022/10/27 18:26:05;;;;;;;19.00;10.48;;;;;;;15.98;63.70;101082.09;7723828;32;39808;-73
2022/10/27 18:30:21;;;;;;;17.00;9.43;;;;;;;15.86;64.30;101087.06;7737560;32;38157;-74
2022/10/27 18:34:38;;;;;;;16.48;10.18;;;;;;;15.61;65.15;101091.44;7734583;32;38001;-73
2022/10/27 18:38:55;;;;;;;18.55;9.25;;;;;;;15.62;65.29;101093.06;7715831;32;40200;-73
2022/10/27 18:43:12;;;;;;;19.25;8.85;;;;;;;15.79;64.46;101097.53;7722297;32;40823;-73
2022/10/27 18:47:28;;;;;;;16.52;9.45;;;;;;;15.69;64.43;101081.81;7736999;32;38841;-72
2022/10/27 18:51:44;;;;;;;19.00;10.63;;;;;;;15.71;64.08;101093.34;7737881;32;37212;-73
2022/10/27 18:56:02;;;;;;;16.30;9.65;;;;;;;15.30;65.29;101094.13;7737209;32;40073;-81
2022/10/27 19:00:18;;;;;;;17.17;9.63;;;;;;;15.42;65.02;101102.13;7732790;32;40779;-80
2022/10/27 19:04:34;;;;;;;17.10;10.30;;;;;;;15.43;64.95;101101.03;7711547;32;38056;-80
2022/10/27 19:08:51;;;;;;;18.23;10.93;;;;;;;15.55;64.60;101098.00;7711726;32;37963;-72
2022/10/27 19:13:08;;;;;;;28.77;18.30;;;;;;;15.67;64.14;101095.00;7714647;32;40169;-80
2022/10/27 19:17:24;;;;;;;25.35;15.35;;;;;;;15.52;64.72;101093.06;7738006;32;40835;-78
2022/10/27 19:21:40;;;;;;;21.33;13.45;;;;;;;15.35;65.25;101096.06;7738281;32;38035;-79
2022/10/27 19:26:11;;;;;;;22.77;12.48;;;;;;;15.66;64.20;101102.44;7720005;32;37969;-81
2022/10/27 19:30:27;;;;;;;17.50;9.70;;;;;;;15.25;65.42;101102.38;7720500;32;39381;-81
2022/10/27 19:34:43;;;;;;;15.13;8.93;;;;;;;15.39;64.99;101110.91;7715137;32;40020;-75
2022/10/27 19:39:07;;;;;;;15.98;8.50;;;;;;;15.51;65.11;101119.72;7710205;32;37885;-72
2022/10/27 19:43:23;;;;;;;20.23;9.32;;;;;;;15.21;65.70;101120.47;7711114;32;37047;-72
2022/10/27 19:47:40;;;;;;;18.02;9.15;;;;;;;15.38;65.17;101115.59;7720139;32;39066;-70
2022/10/27 19:51:56;;;;;;;17.45;9.25;;;;;;;15.62;64.41;101119.75;7710746;32;39967;-72